Stateline, NV (89449)

12:17 AM PDT on September 21, 2014 (GMT -0700)
MesoWest KAHLE DRIVE NV US NV DOT | Change Station
CLOSE
Current Station
Personal Weather Station
Location: Stateline, NV
Elevation: 6307 ft
Nearby Weather Stations

Elev 6307 ft 38.97 °N, 119.93 °W | Updated 2 days ago

Thunderstorm
Thunderstorm
51 °F
Feels Like 51 °F
N
5
Wind Variable Wind from ENE
Gusts 10 mph

Today
High -- | Low -- °F
--% Chance of Precip.
Yesterday
High -- | Low -- °F
Precip. -- in
6:46 AM 6:58 PM
Waning Crescent, 8% visible
Pressure 30.01 in
Visibility 10.0 miles
Clouds Few 4700 ft
Scattered Clouds 7500 ft
Mostly Cloudy 9000 ft
Dew Point 41 °F
Humidity 67%
Rainfall -999.00 in
Snow Depth Not available.
UV 0 out of 12
Pollen 6.70 out of 12
Air Quality Not available.
Flu Activity Not available.
METAR KTVL 210653Z AUTO 00000KT 10SM -RA FEW047 SCT075 BKN090 14/05 A3020 RMK AO2 RAB31 SLP161 P0000 T01390050

More Conditions Fewer Conditions

Pressure 30.01 in
Visibility 10.0 miles
Clouds Few 4700 ft
Scattered Clouds 7500 ft
Mostly Cloudy 9000 ft
Dew Point 41 °F
Humidity 67%
Rainfall -999.00 in
Snow Depth Not available.
UV 0 out of 12
Pollen 6.70 out of 12
Air Quality Not available.
Flu Activity Not available.
METAR KTVL 210653Z AUTO 00000KT 10SM -RA FEW047 SCT075 BKN090 14/05 A3020 RMK AO2 RAB31 SLP161 P0000 T01390050

More Conditions Fewer Conditions

10-Day Weather Forecast

Almanac

Astronomy

Sep. 21, 2014 Rise Set
Actual Time 6:46 AM PDT 6:58 PM PDT
Civil Twilight 6:19 AM PDT 7:24 PM PDT
Nautical Twilight 5:48 AM PDT 7:55 PM PDT
Astronomical Twilight 5:17 AM PDT 8:27 PM PDT
Moon 4:25 AM PDT 5:36 PM PDT
Length of Visible Light 13h 04m
Length of Day
12h 11m
Tomorrow will be 2m 31s shorter.
Waning Crescent, 8% of the Moon is Illuminated
Today
Waning Crescent
Sep 24
New
Oct 1
First Quarter
Oct 8
Full
Oct 15
Last Quarter

Community

WunderPhotos

Upload Photos

1,755,101 photos uploaded!

Nearby

Snow Depth

Station Depth Elevation
Taylor Canyon 1 in 6200 ft
Big Creek Summit 1 in 8700 ft
Seventysix Creek 0 in 7100 ft
Lamoille #3 0 in 7700 ft
Ward Mountain 0 in 9200 ft

Earthquake Activity

City Distance Mag. Time & Date
Gabbs, Nevada 97 miles 3.3 4:37 AM PDT
2014-09-19
Livermore, California 131 miles 2.6 3:37 AM PDT
2014-09-19
Minimum magnitude displayed is 2.5.

Coastal Water Temperatures

Place Temperature
No Stations Reporting

Nearby Weather Stations